Kerrick, TX (79051)

3:09 PM CDT on July 29, 2016 (GMT -0500)
McDaniel Farm | | Change Station

Elev 3957 ft 36.46 °N, 102.32 °W | Updated 5 seconds ago

Clear
Clear
83.3 °F
Feels Like 81 °F
N
13.4
Wind Variable Wind from SE
Gusts 15.0 mph

Today
High -- | Low -- °F
--% Chance of Precip.
Yesterday
High -- | Low -- °F
Precip. -- in
Pressure 29.89 in
Visibility 10.0 miles
Clouds Clear
Heat Index 81 °F
Dew Point 23 °F
Humidity 11%
Rainfall 0.04 in
Snow Depth Not available.
6:53 AM 8:57 PM
Waning Crescent, 19% visible
METAR KDHT 291953Z AUTO 16018G23KT 10SM CLR 33/13 A3009 RMK AO2 PK WND 15030/1924 SLP122 T03280133
Pressure 29.89 in
Visibility 10.0 miles
Clouds Clear
Heat Index 81 °F
Dew Point 23 °F
Humidity 11%
Rainfall 0.04 in
Snow Depth Not available.
6:53 AM 8:57 PM
Waning Crescent, 19% visible
METAR KDHT 291953Z AUTO 16018G23KT 10SM CLR 33/13 A3009 RMK AO2 PK WND 15030/1924 SLP122 T03280133

10-Day Weather Forecast

Almanac

Astronomy

Jul. 29, 2016 Rise Set
Actual Time
Civil Twilight
Nautical Twilight
Astronomical Twilight
Moon
Length of Visible Light
Length of Day
Tomorrow will be .
, % of the Moon is Illuminated

Today's Extremes

State Highs State Lows

Community

WunderPhotos

Upload Photos

1,928,403 photos uploaded!

WunderBlog® & News

Nearby

Air Quality

  Air Quality AQ Index Pollutant
Not available.

Snow Depth

Station Depth Elevation

Earthquake Activity

City Distance Mag. Time & Date
Minimum magnitude displayed is 2.5.

Coastal Water Temperatures

Place Temperature

Stations

Nearby Weather Stations

Station Location Temp. Windchill Dew Point Humidity Wind Precip. Elev Updated Type
                   

Watches & Warnings

There are currently no watches in effect.